logo
Search for airport 
image banner adimage banner adimage banner ad
image banner ad

LGMARG - Margariti / Igoumenitsa

Located in , Greece

ICAO - , IATA -

Data provided by Airmate  

General information

Coordinates: N39°22'22" E20°24'49"
Elevation is 360 feet MSL.
 
View others Airports in Ioannina

Operational data

Special qualification required
Current time UTC:
Current local time:
METAR: LGKR 152050Z 00000KT 9999 FEW025 18/15 Q1016 NOSIG
TAF: TAF LGKR 151700Z 1518/1618 VRB05KT 9999 FEW020 PROB30 1600/1606 4000 BR SCT006 BECMG 1607/1609 16010KT FEW018 BKN080 PROB30 TEMPO 1612/1618 RA FEW016TCU BKN020 BKN070
View NOTAMs / SUP AIP / TFR affecting this airport [VIEW]
Communications frequencies: [VIEW]

Runways:

Airport contact information

Address: Greece

Satellite view of LGMARG